createdAt,value
2018-02-10T00:01:41.299Z,36.42
2018-02-10T00:04:08.936Z,33.17
2018-02-10T00:06:34.914Z,35.22
2018-02-10T00:09:01.439Z,37.73
2018-02-10T00:11:27.799Z,38.22
2018-02-10T00:13:57.888Z,36.67
2018-02-10T00:16:32.110Z,35.65
2018-02-10T00:18:59.796Z,37.65
2018-02-10T00:21:25.846Z,43.15
2018-02-10T00:23:52.940Z,40.00
2018-02-10T00:26:19.012Z,37.35
2018-02-10T00:28:46.618Z,35.35
2018-02-10T00:31:13.202Z,39.10
2018-02-10T00:33:39.436Z,38.25
2018-02-10T00:36:06.038Z,36.15
2018-02-10T00:38:32.071Z,37.15
2018-02-10T00:40:58.396Z,34.08
2018-02-10T00:43:25.368Z,34.35
2018-02-10T00:45:52.264Z,36.58
2018-02-10T00:48:20.130Z,36.22
2018-02-10T00:50:46.364Z,37.58
2018-02-10T00:53:14.160Z,56.80
2018-02-10T00:55:40.247Z,41.75
2018-02-10T00:58:06.379Z,52.03
2018-02-10T01:00:32.511Z,41.50
2018-02-10T01:03:00.735Z,42.62
2018-02-10T01:05:27.715Z,36.55
2018-02-10T01:07:57.238Z,35.15
2018-02-10T01:10:25.395Z,39.88
2018-02-10T01:15:23.770Z,35.67
2018-02-10T01:17:50.538Z,36.50
2018-02-10T01:20:16.598Z,33.95
2018-02-10T01:22:43.938Z,35.42
2018-02-10T01:25:10.134Z,33.78
2018-02-10T01:27:36.271Z,37.35
2018-02-10T01:30:02.960Z,35.55
2018-02-10T01:32:33.337Z,33.92
2018-02-10T01:35:00.324Z,38.70
2018-02-10T01:37:26.386Z,36.60
2018-02-10T01:39:56.320Z,39.17
2018-02-10T01:42:23.055Z,37.50
2018-02-10T01:44:49.158Z,35.08
2018-02-10T01:47:16.232Z,36.63
2018-02-10T01:49:42.282Z,36.25
2018-02-10T01:52:08.318Z,36.63
2018-02-10T01:54:34.346Z,34.80
2018-02-10T01:57:02.314Z,35.00
2018-02-10T01:59:29.022Z,38.75
2018-02-10T02:01:55.923Z,39.65
2018-02-10T02:06:53.508Z,36.30
2018-02-10T02:09:19.531Z,36.45
2018-02-10T02:11:45.811Z,37.90
2018-02-10T02:14:12.505Z,39.95
2018-02-10T02:16:38.542Z,38.80
2018-02-10T02:19:04.567Z,38.15
2018-02-10T02:21:30.693Z,34.88
2018-02-10T02:23:57.067Z,35.38
2018-02-10T02:26:23.151Z,39.25
2018-02-10T02:28:49.410Z,38.60
2018-02-10T02:31:17.034Z,37.47
2018-02-10T02:33:43.057Z,38.35
2018-02-10T02:36:09.822Z,39.00
2018-02-10T02:38:35.956Z,36.45
2018-02-10T02:41:02.306Z,36.10
2018-02-10T02:43:28.422Z,41.25
2018-02-10T02:45:54.520Z,42.85
2018-02-10T02:48:20.669Z,39.85
2018-02-10T02:50:47.668Z,38.05
2018-02-10T02:53:13.718Z,38.50
2018-02-10T02:55:39.817Z,40.22
2018-02-10T02:58:05.870Z,40.65
2018-02-10T03:00:31.959Z,36.08
2018-02-10T03:02:58.727Z,37.35
2018-02-10T03:05:24.790Z,35.75
2018-02-10T03:07:51.092Z,41.13
2018-02-10T03:10:17.183Z,35.80
2018-02-10T03:12:43.442Z,40.92
2018-02-10T03:15:09.971Z,34.97
2018-02-10T03:17:37.073Z,39.92
2018-02-10T03:20:03.295Z,36.53
2018-02-10T03:22:29.278Z,36.30
2018-02-10T03:24:55.386Z,40.27
2018-02-10T03:27:21.930Z,35.80
2018-02-10T03:29:48.518Z,36.72
2018-02-10T03:32:16.355Z,37.13
2018-02-10T03:34:42.444Z,38.53
2018-02-10T03:37:08.549Z,38.60
2018-02-10T03:39:34.592Z,40.42
2018-02-10T03:42:00.690Z,39.00
2018-02-10T03:44:27.456Z,38.90
2018-02-10T03:46:53.529Z,39.55
2018-02-10T03:49:19.714Z,39.15
2018-02-10T03:51:45.745Z,38.30
2018-02-10T03:54:13.604Z,40.05
2018-02-10T03:56:39.627Z,36.55
2018-02-10T03:59:05.645Z,38.25
2018-02-10T04:01:32.282Z,37.15
2018-02-10T04:03:58.346Z,39.97
2018-02-10T04:06:24.448Z,40.08
2018-02-10T04:08:50.564Z,38.63
2018-02-10T04:11:16.573Z,41.88
2018-02-10T04:13:42.706Z,40.65
2018-02-10T04:16:09.693Z,40.45
2018-02-10T04:18:35.766Z,42.08
2018-02-10T04:21:01.772Z,37.83
2018-02-10T04:23:27.856Z,39.53
2018-02-10T04:25:54.770Z,38.58
2018-02-10T04:28:20.786Z,41.85
2018-02-10T04:30:47.372Z,37.92
2018-02-10T04:33:13.450Z,40.12
2018-02-10T04:35:40.285Z,38.38
2018-02-10T04:38:06.958Z,40.40
2018-02-10T04:40:32.952Z,38.03
2018-02-10T04:42:58.979Z,40.30
2018-02-10T04:45:25.082Z,38.25
2018-02-10T04:47:51.060Z,40.38
2018-02-10T04:50:17.107Z,40.40
2018-02-10T04:52:43.158Z,38.75
2018-02-10T04:55:09.432Z,41.08
2018-02-10T04:57:35.596Z,40.17
2018-02-10T05:00:01.904Z,38.63
2018-02-10T05:02:27.896Z,37.10
2018-02-10T05:04:53.964Z,40.50
2018-02-10T05:07:20.088Z,40.70
2018-02-10T05:09:46.110Z,39.80
2018-02-10T05:12:12.115Z,39.47
2018-02-10T05:14:38.129Z,41.30
2018-02-10T05:17:05.183Z,40.30
2018-02-10T05:19:31.212Z,39.97
2018-02-10T05:21:57.233Z,40.33
2018-02-10T05:24:23.483Z,40.30
2018-02-10T05:26:50.459Z,38.55
2018-02-10T05:29:16.851Z,39.38
2018-02-10T05:31:43.114Z,40.30
2018-02-10T05:34:09.956Z,40.15
2018-02-10T05:36:35.986Z,41.10
2018-02-10T05:39:02.214Z,39.97
2018-02-10T05:41:28.539Z,41.25
2018-02-10T05:43:55.130Z,38.25
2018-02-10T05:46:23.099Z,39.40
2018-02-10T05:48:49.150Z,41.65
2018-02-10T05:51:16.075Z,38.40
2018-02-10T05:53:43.842Z,37.58
2018-02-10T05:56:10.484Z,41.15
2018-02-10T05:58:36.625Z,42.83
2018-02-10T06:01:03.263Z,37.47
2018-02-10T06:03:29.354Z,39.70
2018-02-10T06:05:56.168Z,40.20
2018-02-10T06:08:22.164Z,41.28
2018-02-10T06:10:48.971Z,41.35
2018-02-10T06:13:14.934Z,40.20
2018-02-10T06:15:40.942Z,40.73
2018-02-10T06:18:07.798Z,38.75
2018-02-10T06:20:34.933Z,39.10
2018-02-10T06:23:01.022Z,38.95
2018-02-10T06:25:27.027Z,38.95
2018-02-10T06:27:53.148Z,43.35
2018-02-10T06:30:19.196Z,41.30
2018-02-10T06:32:45.277Z,39.90
2018-02-10T06:35:11.451Z,39.67
2018-02-10T06:37:38.427Z,40.88
2018-02-10T06:40:04.558Z,38.55
2018-02-10T06:42:31.348Z,37.80
2018-02-10T06:44:57.509Z,37.85
2018-02-10T06:47:23.575Z,38.47
2018-02-10T06:49:50.970Z,39.05
2018-02-10T06:52:17.809Z,38.60
2018-02-10T06:54:44.150Z,38.90
2018-02-10T06:57:12.985Z,38.63
2018-02-10T06:59:39.834Z,38.80
2018-02-10T07:02:05.913Z,37.97
2018-02-10T07:04:32.148Z,38.00
2018-02-10T07:06:58.720Z,37.38
2018-02-10T07:09:25.159Z,37.05
2018-02-10T07:11:51.564Z,38.30
2018-02-10T07:14:17.574Z,39.05
2018-02-10T07:16:43.582Z,35.17
2018-02-10T07:19:10.022Z,40.97
2018-02-10T07:21:36.262Z,36.63
2018-02-10T07:24:02.526Z,39.05
2018-02-10T07:26:29.338Z,37.92
2018-02-10T07:28:55.719Z,36.85
2018-02-10T07:31:21.914Z,41.13
2018-02-10T07:33:48.066Z,38.60
2018-02-10T07:36:14.438Z,40.75
2018-02-10T07:38:40.549Z,43.63
2018-02-10T07:41:08.897Z,38.53
2018-02-10T07:43:34.981Z,38.85
2018-02-10T07:46:01.082Z,38.83
2018-02-10T07:48:27.157Z,37.35
2018-02-10T07:53:25.020Z,39.17
2018-02-10T07:55:53.215Z,36.90
2018-02-10T07:58:19.581Z,40.15
2018-02-10T08:00:45.741Z,38.70
2018-02-10T08:03:12.007Z,40.47
2018-02-10T08:05:38.890Z,37.03
2018-02-10T08:08:04.947Z,38.58
2018-02-10T08:10:31.646Z,39.60
2018-02-10T08:12:59.605Z,37.75
2018-02-10T08:15:25.704Z,36.90
2018-02-10T08:17:52.463Z,39.70
2018-02-10T08:20:19.806Z,35.45
2018-02-10T08:22:46.900Z,38.10
2018-02-10T08:25:14.029Z,38.00
2018-02-10T08:27:40.288Z,36.35
2018-02-10T08:30:07.402Z,37.72
2018-02-10T08:32:33.639Z,35.40
2018-02-10T08:34:59.965Z,36.60
2018-02-10T08:37:26.256Z,34.55
2018-02-10T08:39:52.982Z,37.40
2018-02-10T08:42:19.947Z,37.75
2018-02-10T08:44:46.579Z,35.38
2018-02-10T08:47:13.601Z,35.15
2018-02-10T08:49:39.664Z,31.87
2018-02-10T08:52:06.418Z,35.33
2018-02-10T08:54:32.549Z,34.00
2018-02-10T08:56:58.561Z,32.88
2018-02-10T08:59:27.066Z,31.87
2018-02-10T09:01:53.090Z,33.97
2018-02-10T09:04:22.629Z,30.70
2018-02-10T09:06:49.323Z,29.42
2018-02-10T09:09:15.320Z,32.17
2018-02-10T09:11:41.365Z,30.80
2018-02-10T09:14:08.407Z,30.10
2018-02-10T09:16:34.572Z,35.55
2018-02-10T09:19:01.847Z,30.67
2018-02-10T09:21:27.920Z,33.33
2018-02-10T09:23:54.004Z,29.65
2018-02-10T09:26:20.061Z,29.48
2018-02-10T09:28:46.492Z,31.55
2018-02-10T09:31:14.838Z,29.60
2018-02-10T09:33:41.652Z,29.77
2018-02-10T09:36:07.633Z,30.05
2018-02-10T09:38:33.718Z,28.10
2018-02-10T09:40:59.740Z,26.62
2018-02-10T09:43:25.735Z,26.90
2018-02-10T09:45:52.215Z,27.90
2018-02-10T09:48:20.264Z,26.55
2018-02-10T09:53:32.011Z,26.65
2018-02-10T09:55:58.098Z,24.50
2018-02-10T09:58:24.152Z,26.48
2018-02-10T10:00:50.409Z,26.27
2018-02-10T10:03:16.448Z,28.08
2018-02-10T10:05:43.306Z,24.60
2018-02-10T10:08:09.355Z,25.52
2018-02-10T10:10:35.484Z,25.37
2018-02-10T10:13:03.668Z,25.92
2018-02-10T10:15:29.811Z,23.62
2018-02-10T10:17:56.189Z,23.67
2018-02-10T10:20:22.519Z,24.95
2018-02-10T10:22:49.340Z,24.50
2018-02-10T10:25:16.452Z,24.40
2018-02-10T10:27:42.471Z,24.73
2018-02-10T10:30:08.581Z,24.17
2018-02-10T10:35:07.708Z,26.20
2018-02-10T10:37:36.462Z,24.35
2018-02-10T10:40:04.264Z,25.65
2018-02-10T10:42:30.505Z,26.65
2018-02-10T10:44:56.639Z,24.20
2018-02-10T10:47:23.486Z,25.73
2018-02-10T10:49:52.886Z,25.62
2018-02-10T10:52:23.005Z,24.17
2018-02-10T10:54:52.365Z,24.67
2018-02-10T10:57:20.856Z,24.48
2018-02-10T10:59:49.123Z,25.05
2018-02-10T11:02:25.428Z,26.17
2018-02-10T11:04:52.944Z,23.55
2018-02-10T11:07:22.971Z,24.02
2018-02-10T11:09:51.883Z,23.38
2018-02-10T11:12:18.647Z,25.23
2018-02-10T11:14:44.714Z,22.95
2018-02-10T11:17:16.145Z,24.40
2018-02-10T11:19:43.932Z,22.65
2018-02-10T11:22:13.962Z,21.50
2018-02-10T11:24:39.938Z,22.33
2018-02-10T11:27:06.900Z,22.20
2018-02-10T11:29:32.916Z,22.87
2018-02-10T11:31:59.051Z,22.33
2018-02-10T11:34:26.410Z,23.52
2018-02-10T11:36:52.494Z,22.15
2018-02-10T11:39:23.297Z,23.17
2018-02-10T11:41:50.275Z,21.60
2018-02-10T11:44:19.863Z,22.35
2018-02-10T11:46:46.380Z,22.30
2018-02-10T11:49:13.413Z,22.00
2018-02-10T11:51:39.621Z,20.48
2018-02-10T11:54:06.428Z,22.90
2018-02-10T11:56:34.759Z,22.40
2018-02-10T11:59:01.190Z,19.92
2018-02-10T12:01:28.434Z,23.52
2018-02-10T12:03:57.598Z,22.70
2018-02-10T12:06:29.804Z,20.55
2018-02-10T12:08:55.844Z,21.08
2018-02-10T12:11:22.084Z,19.67
2018-02-10T12:13:48.151Z,21.85
2018-02-10T12:19:00.691Z,21.33
2018-02-10T12:21:26.864Z,19.67
2018-02-10T12:23:54.249Z,18.73
2018-02-10T12:26:20.411Z,17.92
2018-02-10T12:28:53.088Z,20.67
2018-02-10T12:31:22.480Z,22.05
2018-02-10T12:33:52.200Z,22.55
2018-02-10T12:36:32.255Z,21.27
2018-02-10T12:39:00.656Z,19.67
2018-02-10T12:41:26.737Z,20.70
2018-02-10T12:43:53.725Z,20.27
2018-02-10T12:46:21.587Z,18.95
2018-02-10T12:49:02.387Z,18.90
2018-02-10T12:51:29.386Z,18.27
2018-02-10T12:56:37.987Z,14.90
2018-02-10T12:59:07.917Z,16.95
2018-02-10T13:04:07.265Z,17.17
2018-02-10T13:09:07.007Z,16.73
2018-02-10T13:11:33.418Z,17.45
2018-02-10T13:13:59.876Z,16.77
2018-02-10T13:24:17.090Z,16.00
2018-02-10T13:31:58.294Z,16.52
2018-02-10T13:39:33.350Z,15.70
2018-02-10T13:42:01.375Z,16.15
2018-02-10T13:44:30.084Z,15.35
2018-02-10T13:46:58.792Z,14.07
2018-02-10T13:49:34.032Z,15.25
2018-02-10T13:52:02.502Z,15.02
2018-02-10T13:54:31.588Z,14.35
2018-02-10T13:57:01.712Z,16.25
2018-02-10T13:59:33.722Z,15.15
2018-02-10T14:01:59.840Z,15.75
2018-02-10T14:04:28.536Z,14.75
2018-02-10T14:09:32.245Z,13.15
2018-02-10T14:14:38.215Z,13.43
2018-02-10T14:17:12.831Z,13.15
2018-02-10T14:22:12.884Z,15.43
2018-02-10T14:27:10.532Z,13.98
2018-02-10T14:29:37.249Z,12.05
2018-02-10T14:34:40.285Z,14.75
2018-02-10T14:42:13.284Z,11.12
2018-02-10T14:44:39.974Z,12.48
2018-02-10T14:47:07.023Z,12.65
2018-02-10T14:52:09.031Z,12.18
2018-02-10T14:54:43.316Z,14.87
2018-02-10T14:57:12.190Z,14.10
2018-02-10T14:59:40.823Z,11.95
2018-02-10T15:02:09.227Z,13.40
2018-02-10T15:04:36.177Z,12.48
2018-02-10T15:07:05.532Z,11.70
2018-02-10T15:09:34.153Z,13.00
2018-02-10T15:12:06.407Z,13.90
2018-02-10T15:14:32.675Z,15.10
2018-02-10T15:16:59.976Z,12.25
2018-02-10T15:19:28.189Z,11.90
2018-02-10T15:21:58.488Z,12.25
2018-02-10T15:27:03.792Z,13.60
2018-02-10T15:29:42.468Z,11.00
2018-02-10T15:32:22.183Z,11.83
2018-02-10T15:34:59.924Z,13.02
2018-02-10T15:37:27.152Z,11.48
2018-02-10T15:39:53.843Z,12.77
2018-02-10T15:42:20.649Z,11.68
2018-02-10T15:44:46.719Z,12.23
2018-02-10T15:47:16.600Z,11.98
2018-02-10T15:49:42.599Z,12.98
2018-02-10T15:54:41.641Z,12.65
2018-02-10T15:59:45.156Z,13.38
2018-02-10T16:02:13.458Z,13.38
2018-02-10T16:04:39.855Z,15.00
2018-02-10T16:07:09.020Z,13.52
2018-02-10T16:09:35.194Z,14.20
2018-02-10T16:12:04.499Z,13.95
2018-02-10T16:14:31.050Z,14.95
2018-02-10T16:16:58.148Z,14.48
2018-02-10T16:19:25.305Z,14.15
2018-02-10T16:21:51.885Z,13.32
2018-02-10T16:24:18.732Z,14.45
2018-02-10T16:29:24.064Z,15.68
2018-02-10T16:31:53.583Z,15.30
2018-02-10T16:34:21.934Z,14.73
2018-02-10T16:36:49.738Z,16.50
2018-02-10T16:39:16.558Z,15.25
2018-02-10T16:41:43.909Z,15.05
2018-02-10T16:46:49.944Z,16.15
2018-02-10T16:49:23.896Z,16.15
2018-02-10T16:54:25.670Z,16.87
2018-02-10T16:56:53.598Z,15.55
2018-02-10T16:59:26.585Z,14.68
2018-02-10T17:01:52.708Z,15.48
2018-02-10T17:04:21.265Z,14.30
2018-02-10T17:06:51.431Z,15.20
2018-02-10T17:09:19.919Z,15.80
2018-02-10T17:11:52.989Z,15.40
2018-02-10T17:14:20.879Z,15.23
2018-02-10T17:16:47.876Z,16.30
2018-02-10T17:19:24.099Z,17.25
2018-02-10T17:24:26.024Z,16.20
2018-02-10T17:26:53.289Z,16.98
2018-02-10T17:29:22.851Z,16.58
2018-02-10T17:31:51.789Z,16.40
2018-02-10T17:34:18.102Z,15.40
2018-02-10T17:36:44.900Z,17.92
2018-02-10T17:39:15.023Z,17.50
2018-02-10T17:41:44.064Z,18.77
2018-02-10T17:44:11.015Z,18.77
2018-02-10T17:46:37.047Z,16.45
2018-02-10T17:51:45.016Z,19.27
2018-02-10T17:54:14.519Z,18.37
2018-02-10T17:59:29.819Z,18.70
2018-02-10T18:01:57.320Z,18.50
2018-02-10T18:06:55.601Z,17.70
2018-02-10T18:09:27.421Z,21.02
2018-02-10T18:14:29.939Z,17.80
2018-02-10T18:19:35.730Z,18.98
2018-02-10T18:24:43.994Z,19.10
2018-02-10T18:29:43.560Z,18.00
2018-02-10T18:32:13.333Z,19.08
2018-02-10T18:34:42.025Z,20.60
2018-02-10T18:39:40.155Z,21.48
2018-02-10T18:44:39.209Z,20.60
2018-02-10T18:47:08.207Z,20.90
2018-02-10T18:49:36.247Z,18.62
2018-02-10T18:52:02.431Z,20.40
2018-02-10T18:54:29.900Z,18.25
2018-02-10T18:56:55.892Z,21.65
2018-02-10T18:59:22.012Z,20.10
2018-02-10T19:01:48.288Z,20.05
2018-02-10T19:04:16.012Z,21.50
2018-02-10T19:06:43.258Z,17.75
2018-02-10T19:09:11.438Z,19.90
2018-02-10T19:11:38.576Z,20.83
2018-02-10T19:16:37.085Z,19.08
2018-02-10T19:19:05.484Z,20.60
2018-02-10T19:21:32.171Z,19.65
2018-02-10T19:23:59.380Z,20.85
2018-02-10T19:26:25.546Z,19.17
2018-02-10T19:28:51.893Z,21.20
2018-02-10T19:31:18.624Z,20.52
2018-02-10T19:33:46.870Z,21.42
2018-02-10T19:36:12.834Z,20.35
2018-02-10T19:38:44.281Z,19.80
2018-02-10T19:41:11.041Z,22.65
2018-02-10T19:43:37.251Z,20.25
2018-02-10T19:46:04.884Z,19.50
2018-02-10T19:48:33.143Z,19.60
2018-02-10T19:50:59.311Z,23.27
2018-02-10T19:53:27.585Z,21.75
2018-02-10T19:55:53.841Z,19.25
2018-02-10T19:58:20.882Z,20.35
2018-02-10T20:00:47.884Z,22.55
2018-02-10T20:03:17.829Z,19.02
2018-02-10T20:05:47.152Z,20.42
2018-02-10T20:08:13.946Z,23.17
2018-02-10T20:10:40.622Z,22.15
2018-02-10T20:13:10.768Z,20.45
2018-02-10T20:15:37.968Z,21.50
2018-02-10T20:18:04.806Z,19.35
2018-02-10T20:20:35.137Z,21.10
2018-02-10T20:23:05.829Z,20.90
2018-02-10T20:25:31.921Z,21.77
2018-02-10T20:27:57.916Z,22.23
2018-02-10T20:30:24.994Z,21.70
2018-02-10T20:32:58.192Z,22.80
2018-02-10T20:35:26.534Z,25.40
2018-02-10T20:37:54.420Z,21.20
2018-02-10T20:40:23.203Z,20.42
2018-02-10T20:42:54.577Z,21.15
2018-02-10T20:45:21.932Z,22.05
2018-02-10T20:47:52.510Z,22.95
2018-02-10T20:50:22.535Z,22.98
2018-02-10T20:52:48.675Z,25.42
2018-02-10T20:55:15.775Z,23.80
2018-02-10T20:57:42.792Z,23.90
2018-02-10T21:00:14.177Z,22.90
2018-02-10T21:02:42.865Z,21.62
2018-02-10T21:07:46.316Z,22.67
2018-02-10T21:10:13.532Z,21.98
2018-02-10T21:15:14.358Z,23.85
2018-02-10T21:17:43.008Z,22.90
2018-02-10T21:20:09.926Z,22.55
2018-02-10T21:22:36.076Z,22.62
2018-02-10T21:25:03.275Z,23.45
2018-02-10T21:27:30.441Z,23.27
2018-02-10T21:29:56.553Z,22.90
2018-02-10T21:32:23.035Z,22.98
2018-02-10T21:34:50.903Z,26.05
2018-02-10T21:37:18.382Z,23.25
2018-02-10T21:39:47.765Z,23.70
2018-02-10T21:42:14.186Z,23.73
2018-02-10T21:44:44.776Z,22.85
2018-02-10T21:49:46.922Z,22.52
2018-02-10T21:52:17.377Z,22.15
2018-02-10T21:54:47.109Z,23.50
2018-02-10T21:57:13.241Z,22.52
2018-02-10T21:59:41.489Z,23.20
2018-02-10T22:07:11.703Z,23.10
2018-02-10T22:14:50.857Z,23.65
2018-02-10T22:49:30.501Z,21.08
2018-02-10T22:51:57.236Z,22.35
2018-02-10T22:54:23.254Z,21.30
2018-02-10T22:56:50.352Z,22.58
2018-02-10T22:59:16.399Z,22.10
2018-02-10T23:01:42.978Z,21.95
2018-02-10T23:04:09.097Z,19.67
2018-02-10T23:06:35.165Z,18.30
2018-02-10T23:09:01.150Z,19.75
2018-02-10T23:11:27.632Z,19.90
2018-02-10T23:13:54.619Z,20.95
2018-02-10T23:16:20.676Z,19.50
2018-02-10T23:18:47.006Z,20.27
2018-02-10T23:21:13.044Z,19.58
2018-02-10T23:23:39.080Z,18.17
2018-02-10T23:26:05.825Z,18.08
2018-02-10T23:28:32.490Z,20.25
2018-02-10T23:30:58.953Z,17.05
2018-02-10T23:33:25.105Z,20.77
2018-02-10T23:35:51.659Z,18.83
2018-02-10T23:38:17.677Z,18.42
2018-02-10T23:40:44.001Z,16.60
2018-02-10T23:43:10.051Z,18.65
2018-02-10T23:45:36.134Z,17.92
2018-02-10T23:48:02.197Z,16.05
2018-02-10T23:50:28.511Z,16.12
2018-02-10T23:52:55.426Z,18.40
2018-02-10T23:55:21.860Z,14.75
2018-02-10T23:57:47.864Z,15.15
